Bemus Point, New York
Current Conditions -  °F | °C
As of 4:35 PM on Monday 24 Nov 2014 (Local Time) from KJHW Reporting Station
Overcast Overcast  
Wind Chill: 54°   Ceiling: 4300
Heat Index: 54°   Visibility: 10mi
Dew Point: 46°   Wind: 17mph
Humidity: 77%   Direction: 220°SW
Pressure: 29.45"   Gusts: 30mph
Location:  42.16°N, 79.39°W
Report Text: KJHW 242135Z 22015G26KT 10SM SCT031 BKN043 OVC080 12/08 A2945 RMK AO1
Loading
Personal Weather Stations






























Interactive Weather Map New forecast layout! Learn more

10-Day Weather Forecast

Advertisements
Track Severe Weather on mobile